sensor_id;sensor_type;location;lat;lon;timestamp;P1;P2;P0
72023;PMS5003;59889;50.700;5.440;2022-08-19T00:00:05;14;14;
72023;PMS5003;59889;50.700;5.440;2022-08-19T00:02:30;17;17;
72023;PMS5003;59889;50.700;5.440;2022-08-19T00:04:55;15;13;
72023;PMS5003;59889;50.700;5.440;2022-08-19T00:07:21;15;15;
72023;PMS5003;59889;50.700;5.440;2022-08-19T00:09:47;16;15;
72023;PMS5003;59889;50.700;5.440;2022-08-19T00:12:13;14;14;
72023;PMS5003;59889;50.700;5.440;2022-08-19T00:14:39;15;15;
72023;PMS5003;59889;50.700;5.440;2022-08-19T00:17:05;16;16;
72023;PMS5003;59889;50.700;5.440;2022-08-19T00:19:30;16;15;
72023;PMS5003;59889;50.700;5.440;2022-08-19T00:21:56;15;14;
72023;PMS5003;59889;50.700;5.440;2022-08-19T00:24:22;15;15;
72023;PMS5003;59889;50.700;5.440;2022-08-19T00:26:48;12;12;
72023;PMS5003;59889;50.700;5.440;2022-08-19T00:29:16;16;15;
72023;PMS5003;59889;50.700;5.440;2022-08-19T00:31:40;16;16;
72023;PMS5003;59889;50.700;5.440;2022-08-19T00:34:06;17;16;
72023;PMS5003;59889;50.700;5.440;2022-08-19T00:36:31;15;15;
72023;PMS5003;59889;50.700;5.440;2022-08-19T00:38:57;14;14;
72023;PMS5003;59889;50.700;5.440;2022-08-19T00:41:23;15;14;
72023;PMS5003;59889;50.700;5.440;2022-08-19T00:43:58;15;15;
72023;PMS5003;59889;50.700;5.440;2022-08-19T00:46:14;15;14;
72023;PMS5003;59889;50.700;5.440;2022-08-19T00:48:40;14;14;
72023;PMS5003;59889;50.700;5.440;2022-08-19T00:51:06;16;16;
72023;PMS5003;59889;50.700;5.440;2022-08-19T00:53:32;15;14;
72023;PMS5003;59889;50.700;5.440;2022-08-19T00:55:58;15;14;
72023;PMS5003;59889;50.700;5.440;2022-08-19T00:58:24;15;15;
72023;PMS5003;59889;50.700;5.440;2022-08-19T01:00:50;13;13;
72023;PMS5003;59889;50.700;5.440;2022-08-19T01:03:16;14;14;
72023;PMS5003;59889;50.700;5.440;2022-08-19T01:05:42;13;13;
72023;PMS5003;59889;50.700;5.440;2022-08-19T01:08:07;14;14;
72023;PMS5003;59889;50.700;5.440;2022-08-19T01:10:33;15;14;
72023;PMS5003;59889;50.700;5.440;2022-08-19T01:12:58;15;14;
72023;PMS5003;59889;50.700;5.440;2022-08-19T01:15:29;14;14;
72023;PMS5003;59889;50.700;5.440;2022-08-19T01:17:49;14;14;
72023;PMS5003;59889;50.700;5.440;2022-08-19T01:20:17;14;14;
72023;PMS5003;59889;50.700;5.440;2022-08-19T01:22:42;15;14;
72023;PMS5003;59889;50.700;5.440;2022-08-19T01:25:07;12;12;
72023;PMS5003;59889;50.700;5.440;2022-08-19T01:27:36;14;14;
72023;PMS5003;59889;50.700;5.440;2022-08-19T01:29:58;15;14;
72023;PMS5003;59889;50.700;5.440;2022-08-19T01:32:24;15;15;
72023;PMS5003;59889;50.700;5.440;2022-08-19T01:34:50;13;12;
72023;PMS5003;59889;50.700;5.440;2022-08-19T01:37:16;14;13;
72023;PMS5003;59889;50.700;5.440;2022-08-19T01:39:42;15;15;
72023;PMS5003;59889;50.700;5.440;2022-08-19T01:42:08;13;13;
72023;PMS5003;59889;50.700;5.440;2022-08-19T01:44:34;16;15;
72023;PMS5003;59889;50.700;5.440;2022-08-19T01:46:59;13;13;
72023;PMS5003;59889;50.700;5.440;2022-08-19T01:49:25;12;12;
72023;PMS5003;59889;50.700;5.440;2022-08-19T01:51:51;14;14;
72023;PMS5003;59889;50.700;5.440;2022-08-19T01:54:17;15;14;
72023;PMS5003;59889;50.700;5.440;2022-08-19T01:56:42;15;13;
72023;PMS5003;59889;50.700;5.440;2022-08-19T01:59:09;13;13;
72023;PMS5003;59889;50.700;5.440;2022-08-19T02:01:34;14;14;
72023;PMS5003;59889;50.700;5.440;2022-08-19T02:04:00;15;14;
72023;PMS5003;59889;50.700;5.440;2022-08-19T02:06:26;13;13;
72023;PMS5003;59889;50.700;5.440;2022-08-19T02:08:52;13;13;
72023;PMS5003;59889;50.700;5.440;2022-08-19T02:11:18;13;13;
72023;PMS5003;59889;50.700;5.440;2022-08-19T02:13:43;13;13;
72023;PMS5003;59889;50.700;5.440;2022-08-19T02:16:09;14;14;
72023;PMS5003;59889;50.700;5.440;2022-08-19T02:18:35;11;11;
72023;PMS5003;59889;50.700;5.440;2022-08-19T02:21:00;16;16;
72023;PMS5003;59889;50.700;5.440;2022-08-19T02:23:26;12;12;
72023;PMS5003;59889;50.700;5.440;2022-08-19T02:25:52;13;13;
72023;PMS5003;59889;50.700;5.440;2022-08-19T02:28:18;13;13;
72023;PMS5003;59889;50.700;5.440;2022-08-19T02:30:44;14;14;
72023;PMS5003;59889;50.700;5.440;2022-08-19T02:33:09;17;17;
72023;PMS5003;59889;50.700;5.440;2022-08-19T02:35:34;13;13;
72023;PMS5003;59889;50.700;5.440;2022-08-19T02:38:00;14;14;
72023;PMS5003;59889;50.700;5.440;2022-08-19T02:40:26;15;15;
72023;PMS5003;59889;50.700;5.440;2022-08-19T02:42:52;12;12;
72023;PMS5003;59889;50.700;5.440;2022-08-19T02:45:17;15;14;
72023;PMS5003;59889;50.700;5.440;2022-08-19T02:47:43;15;14;
72023;PMS5003;59889;50.700;5.440;2022-08-19T02:50:09;15;14;
72023;PMS5003;59889;50.700;5.440;2022-08-19T02:52:35;12;12;
72023;PMS5003;59889;50.700;5.440;2022-08-19T02:55:01;14;13;
72023;PMS5003;59889;50.700;5.440;2022-08-19T02:57:27;15;15;
72023;PMS5003;59889;50.700;5.440;2022-08-19T02:59:52;14;14;
72023;PMS5003;59889;50.700;5.440;2022-08-19T03:02:18;12;12;
72023;PMS5003;59889;50.700;5.440;2022-08-19T03:04:44;13;13;
72023;PMS5003;59889;50.700;5.440;2022-08-19T03:07:12;14;14;
72023;PMS5003;59889;50.700;5.440;2022-08-19T03:09:36;14;13;
72023;PMS5003;59889;50.700;5.440;2022-08-19T03:12:02;14;14;
72023;PMS5003;59889;50.700;5.440;2022-08-19T03:14:29;13;13;
72023;PMS5003;59889;50.700;5.440;2022-08-19T03:16:53;13;13;
72023;PMS5003;59889;50.700;5.440;2022-08-19T03:19:19;13;13;
72023;PMS5003;59889;50.700;5.440;2022-08-19T03:21:45;13;13;
72023;PMS5003;59889;50.700;5.440;2022-08-19T03:24:11;14;14;
72023;PMS5003;59889;50.700;5.440;2022-08-19T03:26:38;12;11;
72023;PMS5003;59889;50.700;5.440;2022-08-19T03:29:02;15;15;
72023;PMS5003;59889;50.700;5.440;2022-08-19T03:31:28;12;11;
72023;PMS5003;59889;50.700;5.440;2022-08-19T03:33:54;13;12;
72023;PMS5003;59889;50.700;5.440;2022-08-19T03:36:21;13;12;
72023;PMS5003;59889;50.700;5.440;2022-08-19T03:38:45;12;12;
72023;PMS5003;59889;50.700;5.440;2022-08-19T03:41:12;12;12;
72023;PMS5003;59889;50.700;5.440;2022-08-19T03:43:37;13;13;
72023;PMS5003;59889;50.700;5.440;2022-08-19T03:46:03;14;14;
72023;PMS5003;59889;50.700;5.440;2022-08-19T03:48:28;16;16;
72023;PMS5003;59889;50.700;5.440;2022-08-19T03:50:54;10;10;
72023;PMS5003;59889;50.700;5.440;2022-08-19T03:53:20;14;14;
72023;PMS5003;59889;50.700;5.440;2022-08-19T03:55:46;13;13;
72023;PMS5003;59889;50.700;5.440;2022-08-19T03:58:12;14;14;
72023;PMS5003;59889;50.700;5.440;2022-08-19T04:00:41;12;12;
72023;PMS5003;59889;50.700;5.440;2022-08-19T04:03:03;12;12;
72023;PMS5003;59889;50.700;5.440;2022-08-19T04:05:29;14;13;
72023;PMS5003;59889;50.700;5.440;2022-08-19T04:07:55;14;14;
72023;PMS5003;59889;50.700;5.440;2022-08-19T04:10:21;19;19;
72023;PMS5003;59889;50.700;5.440;2022-08-19T04:12:46;15;15;
72023;PMS5003;59889;50.700;5.440;2022-08-19T04:15:12;20;20;
72023;PMS5003;59889;50.700;5.440;2022-08-19T04:17:36;20;19;
72023;PMS5003;59889;50.700;5.440;2022-08-19T04:20:02;21;20;
72023;PMS5003;59889;50.700;5.440;2022-08-19T04:22:27;24;24;
72023;PMS5003;59889;50.700;5.440;2022-08-19T04:24:52;20;19;
72023;PMS5003;59889;50.700;5.440;2022-08-19T04:27:18;19;19;
72023;PMS5003;59889;50.700;5.440;2022-08-19T04:29:43;20;20;
72023;PMS5003;59889;50.700;5.440;2022-08-19T04:32:08;19;18;
72023;PMS5003;59889;50.700;5.440;2022-08-19T04:34:33;20;19;
72023;PMS5003;59889;50.700;5.440;2022-08-19T04:36:59;21;19;
72023;PMS5003;59889;50.700;5.440;2022-08-19T04:39:25;23;20;
72023;PMS5003;59889;50.700;5.440;2022-08-19T04:41:49;20;19;
72023;PMS5003;59889;50.700;5.440;2022-08-19T04:44:14;22;21;
72023;PMS5003;59889;50.700;5.440;2022-08-19T04:46:40;20;20;
72023;PMS5003;59889;50.700;5.440;2022-08-19T04:49:06;23;21;
72023;PMS5003;59889;50.700;5.440;2022-08-19T04:51:31;23;22;
72023;PMS5003;59889;50.700;5.440;2022-08-19T04:53:56;21;21;
72023;PMS5003;59889;50.700;5.440;2022-08-19T04:56:21;25;25;
72023;PMS5003;59889;50.700;5.440;2022-08-19T04:58:46;27;25;
72023;PMS5003;59889;50.700;5.440;2022-08-19T05:01:12;21;21;
72023;PMS5003;59889;50.700;5.440;2022-08-19T05:03:37;24;23;
72023;PMS5003;59889;50.700;5.440;2022-08-19T05:06:04;25;23;
72023;PMS5003;59889;50.700;5.440;2022-08-19T05:08:28;24;24;
72023;PMS5003;59889;50.700;5.440;2022-08-19T05:10:54;21;21;
72023;PMS5003;59889;50.700;5.440;2022-08-19T05:13:19;23;23;
72023;PMS5003;59889;50.700;5.440;2022-08-19T05:15:45;22;22;
72023;PMS5003;59889;50.700;5.440;2022-08-19T05:18:10;26;26;
72023;PMS5003;59889;50.700;5.440;2022-08-19T05:20:37;28;27;
72023;PMS5003;59889;50.700;5.440;2022-08-19T05:23:01;29;27;
72023;PMS5003;59889;50.700;5.440;2022-08-19T05:25:26;24;23;
72023;PMS5003;59889;50.700;5.440;2022-08-19T05:27:51;26;25;
72023;PMS5003;59889;50.700;5.440;2022-08-19T05:30:17;28;26;
72023;PMS5003;59889;50.700;5.440;2022-08-19T05:32:42;28;25;
72023;PMS5003;59889;50.700;5.440;2022-08-19T05:35:08;26;25;
72023;PMS5003;59889;50.700;5.440;2022-08-19T05:37:33;23;22;
72023;PMS5003;59889;50.700;5.440;2022-08-19T05:39:58;28;24;
72023;PMS5003;59889;50.700;5.440;2022-08-19T05:42:23;23;23;
72023;PMS5003;59889;50.700;5.440;2022-08-19T05:44:50;26;25;
72023;PMS5003;59889;50.700;5.440;2022-08-19T05:47:14;20;20;
72023;PMS5003;59889;50.700;5.440;2022-08-19T05:49:41;25;23;
72023;PMS5003;59889;50.700;5.440;2022-08-19T05:52:11;23;23;
72023;PMS5003;59889;50.700;5.440;2022-08-19T05:54:31;25;25;
72023;PMS5003;59889;50.700;5.440;2022-08-19T05:56:57;30;30;
72023;PMS5003;59889;50.700;5.440;2022-08-19T05:59:23;24;24;
72023;PMS5003;59889;50.700;5.440;2022-08-19T06:01:49;22;22;
72023;PMS5003;59889;50.700;5.440;2022-08-19T06:04:13;28;26;
72023;PMS5003;59889;50.700;5.440;2022-08-19T06:06:39;30;29;
72023;PMS5003;59889;50.700;5.440;2022-08-19T06:09:05;27;27;
72023;PMS5003;59889;50.700;5.440;2022-08-19T06:11:32;29;28;
72023;PMS5003;59889;50.700;5.440;2022-08-19T06:13:55;24;23;
72023;PMS5003;59889;50.700;5.440;2022-08-19T06:16:21;25;24;
72023;PMS5003;59889;50.700;5.440;2022-08-19T06:18:46;31;30;
72023;PMS5003;59889;50.700;5.440;2022-08-19T06:21:11;27;25;
72023;PMS5003;59889;50.700;5.440;2022-08-19T06:23:37;29;29;
72023;PMS5003;59889;50.700;5.440;2022-08-19T06:26:02;29;27;
72023;PMS5003;59889;50.700;5.440;2022-08-19T06:28:27;21;21;
72023;PMS5003;59889;50.700;5.440;2022-08-19T06:30:52;26;25;
72023;PMS5003;59889;50.700;5.440;2022-08-19T06:33:18;32;31;
72023;PMS5003;59889;50.700;5.440;2022-08-19T06:35:44;26;26;
72023;PMS5003;59889;50.700;5.440;2022-08-19T06:38:09;26;25;
72023;PMS5003;59889;50.700;5.440;2022-08-19T06:40:35;25;25;
72023;PMS5003;59889;50.700;5.440;2022-08-19T06:43:00;28;26;
72023;PMS5003;59889;50.700;5.440;2022-08-19T06:45:26;25;24;
72023;PMS5003;59889;50.700;5.440;2022-08-19T06:47:51;23;23;
72023;PMS5003;59889;50.700;5.440;2022-08-19T06:50:16;20;20;
72023;PMS5003;59889;50.700;5.440;2022-08-19T06:52:42;26;25;
72023;PMS5003;59889;50.700;5.440;2022-08-19T06:55:07;26;25;
72023;PMS5003;59889;50.700;5.440;2022-08-19T06:57:32;25;24;
72023;PMS5003;59889;50.700;5.440;2022-08-19T06:59:58;28;27;
72023;PMS5003;59889;50.700;5.440;2022-08-19T07:02:24;28;26;
72023;PMS5003;59889;50.700;5.440;2022-08-19T07:04:50;23;23;
72023;PMS5003;59889;50.700;5.440;2022-08-19T07:07:15;23;23;
72023;PMS5003;59889;50.700;5.440;2022-08-19T07:09:42;23;22;
72023;PMS5003;59889;50.700;5.440;2022-08-19T07:12:07;24;22;
72023;PMS5003;59889;50.700;5.440;2022-08-19T07:14:33;22;21;
72023;PMS5003;59889;50.700;5.440;2022-08-19T07:16:58;26;23;
72023;PMS5003;59889;50.700;5.440;2022-08-19T07:19:24;22;20;
72023;PMS5003;59889;50.700;5.440;2022-08-19T07:21:49;28;25;
72023;PMS5003;59889;50.700;5.440;2022-08-19T07:24:14;22;21;
72023;PMS5003;59889;50.700;5.440;2022-08-19T07:26:40;20;20;
72023;PMS5003;59889;50.700;5.440;2022-08-19T07:29:04;18;17;
72023;PMS5003;59889;50.700;5.440;2022-08-19T07:31:30;20;19;
72023;PMS5003;59889;50.700;5.440;2022-08-19T07:33:55;20;19;
72023;PMS5003;59889;50.700;5.440;2022-08-19T07:36:22;20;19;
72023;PMS5003;59889;50.700;5.440;2022-08-19T07:38:47;22;21;
72023;PMS5003;59889;50.700;5.440;2022-08-19T07:41:13;19;18;
72023;PMS5003;59889;50.700;5.440;2022-08-19T07:43:37;24;22;
72023;PMS5003;59889;50.700;5.440;2022-08-19T07:46:02;22;22;
72023;PMS5003;59889;50.700;5.440;2022-08-19T07:48:27;24;23;
72023;PMS5003;59889;50.700;5.440;2022-08-19T07:50:53;24;21;
72023;PMS5003;59889;50.700;5.440;2022-08-19T07:53:18;29;27;
72023;PMS5003;59889;50.700;5.440;2022-08-19T07:55:43;24;22;
72023;PMS5003;59889;50.700;5.440;2022-08-19T07:58:09;25;23;
72023;PMS5003;59889;50.700;5.440;2022-08-19T08:00:34;26;24;
72023;PMS5003;59889;50.700;5.440;2022-08-19T08:03:00;25;25;
72023;PMS5003;59889;50.700;5.440;2022-08-19T08:05:26;27;27;
72023;PMS5003;59889;50.700;5.440;2022-08-19T08:07:51;28;25;
72023;PMS5003;59889;50.700;5.440;2022-08-19T08:10:16;24;22;
72023;PMS5003;59889;50.700;5.440;2022-08-19T08:12:41;29;27;
72023;PMS5003;59889;50.700;5.440;2022-08-19T08:15:09;21;21;
72023;PMS5003;59889;50.700;5.440;2022-08-19T08:17:33;23;23;
72023;PMS5003;59889;50.700;5.440;2022-08-19T08:19:58;22;21;
72023;PMS5003;59889;50.700;5.440;2022-08-19T08:22:25;26;22;
72023;PMS5003;59889;50.700;5.440;2022-08-19T08:24:50;21;19;
72023;PMS5003;59889;50.700;5.440;2022-08-19T08:27:16;20;19;
72023;PMS5003;59889;50.700;5.440;2022-08-19T08:29:42;21;19;
72023;PMS5003;59889;50.700;5.440;2022-08-19T08:32:07;23;22;
72023;PMS5003;59889;50.700;5.440;2022-08-19T08:34:33;22;21;
72023;PMS5003;59889;50.700;5.440;2022-08-19T08:36:58;23;20;
72023;PMS5003;59889;50.700;5.440;2022-08-19T08:39:24;16;16;
72023;PMS5003;59889;50.700;5.440;2022-08-19T08:41:51;24;22;
72023;PMS5003;59889;50.700;5.440;2022-08-19T08:44:16;18;17;
72023;PMS5003;59889;50.700;5.440;2022-08-19T08:46:41;19;19;
72023;PMS5003;59889;50.700;5.440;2022-08-19T08:49:09;21;20;
72023;PMS5003;59889;50.700;5.440;2022-08-19T08:51:32;25;23;
72023;PMS5003;59889;50.700;5.440;2022-08-19T08:53:56;23;22;
72023;PMS5003;59889;50.700;5.440;2022-08-19T08:56:22;16;15;
72023;PMS5003;59889;50.700;5.440;2022-08-19T08:58:49;26;24;
72023;PMS5003;59889;50.700;5.440;2022-08-19T09:01:13;23;22;
72023;PMS5003;59889;50.700;5.440;2022-08-19T09:03:40;20;20;
72023;PMS5003;59889;50.700;5.440;2022-08-19T09:06:04;18;18;
72023;PMS5003;59889;50.700;5.440;2022-08-19T09:08:33;18;17;
72023;PMS5003;59889;50.700;5.440;2022-08-19T09:10:55;19;18;
72023;PMS5003;59889;50.700;5.440;2022-08-19T09:13:22;19;18;
72023;PMS5003;59889;50.700;5.440;2022-08-19T09:15:47;16;16;
72023;PMS5003;59889;50.700;5.440;2022-08-19T09:18:14;22;21;
72023;PMS5003;59889;50.700;5.440;2022-08-19T09:20:38;18;17;
72023;PMS5003;59889;50.700;5.440;2022-08-19T09:23:04;19;18;
72023;PMS5003;59889;50.700;5.440;2022-08-19T09:25:28;16;16;
72023;PMS5003;59889;50.700;5.440;2022-08-19T09:27:54;18;18;
72023;PMS5003;59889;50.700;5.440;2022-08-19T09:30:21;19;17;
72023;PMS5003;59889;50.700;5.440;2022-08-19T09:32:45;18;16;
72023;PMS5003;59889;50.700;5.440;2022-08-19T09:35:12;17;17;
72023;PMS5003;59889;50.700;5.440;2022-08-19T09:37:37;19;18;
72023;PMS5003;59889;50.700;5.440;2022-08-19T09:40:03;15;15;
72023;PMS5003;59889;50.700;5.440;2022-08-19T09:42:28;22;19;
72023;PMS5003;59889;50.700;5.440;2022-08-19T09:44:54;17;16;
72023;PMS5003;59889;50.700;5.440;2022-08-19T09:47:19;20;20;
72023;PMS5003;59889;50.700;5.440;2022-08-19T09:49:44;24;23;
72023;PMS5003;59889;50.700;5.440;2022-08-19T09:52:10;17;17;
72023;PMS5003;59889;50.700;5.440;2022-08-19T09:54:35;18;17;
72023;PMS5003;59889;50.700;5.440;2022-08-19T09:57:01;18;18;
72023;PMS5003;59889;50.700;5.440;2022-08-19T09:59:27;17;17;
72023;PMS5003;59889;50.700;5.440;2022-08-19T10:01:52;22;20;
72023;PMS5003;59889;50.700;5.440;2022-08-19T10:04:18;17;16;
72023;PMS5003;59889;50.700;5.440;2022-08-19T10:06:44;17;16;
72023;PMS5003;59889;50.700;5.440;2022-08-19T10:09:09;20;19;
72023;PMS5003;59889;50.700;5.440;2022-08-19T10:11:35;18;18;
72023;PMS5003;59889;50.700;5.440;2022-08-19T10:14:00;20;20;
72023;PMS5003;59889;50.700;5.440;2022-08-19T10:16:26;15;15;
72023;PMS5003;59889;50.700;5.440;2022-08-19T10:18:51;15;14;
72023;PMS5003;59889;50.700;5.440;2022-08-19T10:21:17;19;17;
72023;PMS5003;59889;50.700;5.440;2022-08-19T10:23:42;12;12;
72023;PMS5003;59889;50.700;5.440;2022-08-19T10:26:07;12;11;
72023;PMS5003;59889;50.700;5.440;2022-08-19T10:28:33;9;9;
72023;PMS5003;59889;50.700;5.440;2022-08-19T10:31:02;11;10;
72023;PMS5003;59889;50.700;5.440;2022-08-19T10:33:24;12;12;
72023;PMS5003;59889;50.700;5.440;2022-08-19T10:38:16;12;9;
72023;PMS5003;59889;50.700;5.440;2022-08-19T10:40:42;9;8;
72023;PMS5003;59889;50.700;5.440;2022-08-19T10:43:08;10;9;
72023;PMS5003;59889;50.700;5.440;2022-08-19T10:45:33;10;9;
72023;PMS5003;59889;50.700;5.440;2022-08-19T10:47:59;8;8;
72023;PMS5003;59889;50.700;5.440;2022-08-19T10:50:25;10;9;
72023;PMS5003;59889;50.700;5.440;2022-08-19T10:52:51;10;10;
72023;PMS5003;59889;50.700;5.440;2022-08-19T10:55:18;9;9;
72023;PMS5003;59889;50.700;5.440;2022-08-19T10:57:43;8;8;
72023;PMS5003;59889;50.700;5.440;2022-08-19T11:00:09;9;9;
72023;PMS5003;59889;50.700;5.440;2022-08-19T11:02:34;9;8;
72023;PMS5003;59889;50.700;5.440;2022-08-19T11:05:00;7;6;
72023;PMS5003;59889;50.700;5.440;2022-08-19T11:07:26;9;9;
72023;PMS5003;59889;50.700;5.440;2022-08-19T11:09:52;11;9;
72023;PMS5003;59889;50.700;5.440;2022-08-19T11:12:17;13;12;
72023;PMS5003;59889;50.700;5.440;2022-08-19T11:14:43;8;8;
72023;PMS5003;59889;50.700;5.440;2022-08-19T11:17:09;8;8;
72023;PMS5003;59889;50.700;5.440;2022-08-19T11:19:35;7;7;
72023;PMS5003;59889;50.700;5.440;2022-08-19T11:22:00;12;12;
72023;PMS5003;59889;50.700;5.440;2022-08-19T11:24:26;8;7;
72023;PMS5003;59889;50.700;5.440;2022-08-19T11:26:53;7;7;
72023;PMS5003;59889;50.700;5.440;2022-08-19T11:29:18;10;9;
72023;PMS5003;59889;50.700;5.440;2022-08-19T11:31:44;8;8;
72023;PMS5003;59889;50.700;5.440;2022-08-19T11:34:10;9;9;
72023;PMS5003;59889;50.700;5.440;2022-08-19T11:36:36;9;9;
72023;PMS5003;59889;50.700;5.440;2022-08-19T11:39:01;9;9;
72023;PMS5003;59889;50.700;5.440;2022-08-19T11:41:27;10;9;
72023;PMS5003;59889;50.700;5.440;2022-08-19T11:43:53;10;9;
72023;PMS5003;59889;50.700;5.440;2022-08-19T11:46:18;10;10;
72023;PMS5003;59889;50.700;5.440;2022-08-19T11:48:44;10;10;
72023;PMS5003;59889;50.700;5.440;2022-08-19T11:51:11;7;7;
72023;PMS5003;59889;50.700;5.440;2022-08-19T11:53:36;9;9;
72023;PMS5003;59889;50.700;5.440;2022-08-19T11:56:02;9;9;
72023;PMS5003;59889;50.700;5.440;2022-08-19T11:58:28;9;9;
72023;PMS5003;59889;50.700;5.440;2022-08-19T12:00:53;11;11;
72023;PMS5003;59889;50.700;5.440;2022-08-19T12:03:19;10;10;
72023;PMS5003;59889;50.700;5.440;2022-08-19T12:05:45;9;9;
72023;PMS5003;59889;50.700;5.440;2022-08-19T12:08:11;9;8;
72023;PMS5003;59889;50.700;5.440;2022-08-19T12:10:37;9;9;
72023;PMS5003;59889;50.700;5.440;2022-08-19T12:13:02;12;12;
72023;PMS5003;59889;50.700;5.440;2022-08-19T12:15:27;9;9;
72023;PMS5003;59889;50.700;5.440;2022-08-19T12:17:53;8;8;
72023;PMS5003;59889;50.700;5.440;2022-08-19T12:20:19;6;5;
72023;PMS5003;59889;50.700;5.440;2022-08-19T12:22:45;8;8;
72023;PMS5003;59889;50.700;5.440;2022-08-19T12:25:11;8;7;
72023;PMS5003;59889;50.700;5.440;2022-08-19T12:27:37;5;5;
72023;PMS5003;59889;50.700;5.440;2022-08-19T12:30:03;7;6;
72023;PMS5003;59889;50.700;5.440;2022-08-19T12:32:28;7;6;
72023;PMS5003;59889;50.700;5.440;2022-08-19T12:34:54;5;5;
72023;PMS5003;59889;50.700;5.440;2022-08-19T12:37:20;6;6;
72023;PMS5003;59889;50.700;5.440;2022-08-19T12:39:46;5;5;
72023;PMS5003;59889;50.700;5.440;2022-08-19T12:42:13;6;6;
72023;PMS5003;59889;50.700;5.440;2022-08-19T12:44:38;3;3;
72023;PMS5003;59889;50.700;5.440;2022-08-19T12:47:04;5;5;
72023;PMS5003;59889;50.700;5.440;2022-08-19T12:49:30;5;5;
72023;PMS5003;59889;50.700;5.440;2022-08-19T12:51:55;5;5;
72023;PMS5003;59889;50.700;5.440;2022-08-19T12:54:21;5;5;
72023;PMS5003;59889;50.700;5.440;2022-08-19T12:56:47;5;5;
72023;PMS5003;59889;50.700;5.440;2022-08-19T12:59:13;4;4;
72023;PMS5003;59889;50.700;5.440;2022-08-19T13:01:38;7;5;
72023;PMS5003;59889;50.700;5.440;2022-08-19T13:04:04;5;4;
72023;PMS5003;59889;50.700;5.440;2022-08-19T13:06:30;5;4;
72023;PMS5003;59889;50.700;5.440;2022-08-19T13:08:56;5;4;
72023;PMS5003;59889;50.700;5.440;2022-08-19T13:11:22;3;3;
72023;PMS5003;59889;50.700;5.440;2022-08-19T13:13:48;5;5;
72023;PMS5003;59889;50.700;5.440;2022-08-19T13:16:14;6;5;
72023;PMS5003;59889;50.700;5.440;2022-08-19T13:18:40;5;5;
72023;PMS5003;59889;50.700;5.440;2022-08-19T13:21:06;6;5;
72023;PMS5003;59889;50.700;5.440;2022-08-19T13:23:32;5;5;
72023;PMS5003;59889;50.700;5.440;2022-08-19T13:25:57;7;7;
72023;PMS5003;59889;50.700;5.440;2022-08-19T13:28:23;6;5;
72023;PMS5003;59889;50.700;5.440;2022-08-19T13:30:48;6;6;
72023;PMS5003;59889;50.700;5.440;2022-08-19T13:33:14;5;5;
72023;PMS5003;59889;50.700;5.440;2022-08-19T13:35:41;5;4;
72023;PMS5003;59889;50.700;5.440;2022-08-19T13:38:06;4;3;
72023;PMS5003;59889;50.700;5.440;2022-08-19T13:40:32;6;5;
72023;PMS5003;59889;50.700;5.440;2022-08-19T13:42:58;3;3;
72023;PMS5003;59889;50.700;5.440;2022-08-19T13:45:24;3;3;
72023;PMS5003;59889;50.700;5.440;2022-08-19T13:47:50;4;4;
72023;PMS5003;59889;50.700;5.440;2022-08-19T13:50:16;5;4;
72023;PMS5003;59889;50.700;5.440;2022-08-19T13:52:41;7;6;
72023;PMS5003;59889;50.700;5.440;2022-08-19T13:55:08;5;4;
72023;PMS5003;59889;50.700;5.440;2022-08-19T13:57:33;6;6;
72023;PMS5003;59889;50.700;5.440;2022-08-19T13:59:59;5;5;
72023;PMS5003;59889;50.700;5.440;2022-08-19T14:02:24;6;6;
72023;PMS5003;59889;50.700;5.440;2022-08-19T14:04:50;6;6;
72023;PMS5003;59889;50.700;5.440;2022-08-19T14:07:16;6;6;
72023;PMS5003;59889;50.700;5.440;2022-08-19T14:09:42;5;5;
72023;PMS5003;59889;50.700;5.440;2022-08-19T14:12:08;5;5;
72023;PMS5003;59889;50.700;5.440;2022-08-19T14:14:36;3;3;
72023;PMS5003;59889;50.700;5.440;2022-08-19T14:16:59;4;4;
72023;PMS5003;59889;50.700;5.440;2022-08-19T14:19:26;6;5;
72023;PMS5003;59889;50.700;5.440;2022-08-19T14:21:51;4;4;
72023;PMS5003;59889;50.700;5.440;2022-08-19T14:24:17;4;4;
72023;PMS5003;59889;50.700;5.440;2022-08-19T14:26:43;5;5;
72023;PMS5003;59889;50.700;5.440;2022-08-19T14:29:09;3;3;
72023;PMS5003;59889;50.700;5.440;2022-08-19T14:31:34;5;5;
72023;PMS5003;59889;50.700;5.440;2022-08-19T14:34:00;4;4;
72023;PMS5003;59889;50.700;5.440;2022-08-19T14:36:26;4;4;
72023;PMS5003;59889;50.700;5.440;2022-08-19T14:38:52;2;2;
72023;PMS5003;59889;50.700;5.440;2022-08-19T14:41:19;4;4;
72023;PMS5003;59889;50.700;5.440;2022-08-19T14:43:44;4;4;
72023;PMS5003;59889;50.700;5.440;2022-08-19T14:46:09;4;4;
72023;PMS5003;59889;50.700;5.440;2022-08-19T14:48:35;4;4;
72023;PMS5003;59889;50.700;5.440;2022-08-19T14:51:01;4;3;
72023;PMS5003;59889;50.700;5.440;2022-08-19T14:53:27;3;3;
72023;PMS5003;59889;50.700;5.440;2022-08-19T14:55:52;3;3;
72023;PMS5003;59889;50.700;5.440;2022-08-19T14:58:18;3;3;
72023;PMS5003;59889;50.700;5.440;2022-08-19T15:00:44;5;5;
72023;PMS5003;59889;50.700;5.440;2022-08-19T15:03:10;3;2;
72023;PMS5003;59889;50.700;5.440;2022-08-19T15:05:36;4;3;
72023;PMS5003;59889;50.700;5.440;2022-08-19T15:08:02;2;2;
72023;PMS5003;59889;50.700;5.440;2022-08-19T15:10:27;5;4;
72023;PMS5003;59889;50.700;5.440;2022-08-19T15:12:53;4;4;
72023;PMS5003;59889;50.700;5.440;2022-08-19T15:15:19;4;3;
72023;PMS5003;59889;50.700;5.440;2022-08-19T15:17:45;3;3;
72023;PMS5003;59889;50.700;5.440;2022-08-19T15:20:12;2;2;
72023;PMS5003;59889;50.700;5.440;2022-08-19T15:22:37;3;3;
72023;PMS5003;59889;50.700;5.440;2022-08-19T15:25:03;4;3;
72023;PMS5003;59889;50.700;5.440;2022-08-19T15:27:28;5;4;
72023;PMS5003;59889;50.700;5.440;2022-08-19T15:29:54;4;4;
72023;PMS5003;59889;50.700;5.440;2022-08-19T15:32:20;4;4;
72023;PMS5003;59889;50.700;5.440;2022-08-19T15:34:46;4;4;
72023;PMS5003;59889;50.700;5.440;2022-08-19T15:37:13;2;2;
72023;PMS5003;59889;50.700;5.440;2022-08-19T15:39:38;5;4;
72023;PMS5003;59889;50.700;5.440;2022-08-19T15:42:03;3;3;
72023;PMS5003;59889;50.700;5.440;2022-08-19T15:44:29;4;4;
72023;PMS5003;59889;50.700;5.440;2022-08-19T15:46:55;5;5;
72023;PMS5003;59889;50.700;5.440;2022-08-19T15:49:21;4;4;
72023;PMS5003;59889;50.700;5.440;2022-08-19T15:51:48;6;4;
72023;PMS5003;59889;50.700;5.440;2022-08-19T15:54:14;4;4;
72023;PMS5003;59889;50.700;5.440;2022-08-19T15:56:39;5;5;
72023;PMS5003;59889;50.700;5.440;2022-08-19T15:59:04;5;5;
72023;PMS5003;59889;50.700;5.440;2022-08-19T16:01:30;6;5;
72023;PMS5003;59889;50.700;5.440;2022-08-19T16:03:57;4;4;
72023;PMS5003;59889;50.700;5.440;2022-08-19T16:06:22;5;5;
72023;PMS5003;59889;50.700;5.440;2022-08-19T16:08:48;5;5;
72023;PMS5003;59889;50.700;5.440;2022-08-19T16:11:13;5;4;
72023;PMS5003;59889;50.700;5.440;2022-08-19T16:13:39;5;5;
72023;PMS5003;59889;50.700;5.440;2022-08-19T16:16:05;4;4;
72023;PMS5003;59889;50.700;5.440;2022-08-19T16:18:31;6;6;